Decoded Metar for LFRV (VANNES in FRANCE) (IATA:VNE) | Meteo·Mobile Aviation Weather
aviador You're here:

LFRV Decoded Metar

VANNES in FRANCE
Report Time2019-04-20 10:00:00
UTC Time2019-04-20 10:34:36
Flight Rules vfr VFR
Wind020° at 13 kt
W.Decomp.*RWY 04: 12.3 kt HW 4.2 kt LCW
RWY 08: 6.7 kt HW 11.1 kt LCW
Visibility9999 m
Phenomena:N/A
Clouds:N/A
Expected CloudBase > 3,600 ft AGL from Temp-Dew spread
CeilingNone
Temp20°C (ISA +6)
Dew Point11°C (56% RH)
AAT15.6°C
QNH1026 hPa
Density Alt876 ft
Elevation445 ft
Report Wrong Elevation
Raw Report
METAR LFRV 201000Z AUTO 02013KT CAVOK 20/11 Q1026=

Extra information for LFRV:More info

Metar Taf Metar & Taf Last 4 Metars F.Rules Stats Wind Profile Meteogram Temp Stats Airport Information Weather charts Add Link Nearby VenuesMetar ALERT Operation Metar Decoded Social comments